createdAt,value
2023-02-24T00:02:00.932Z,10.10
2023-02-24T00:04:31.270Z,10.10
2023-02-24T00:07:01.396Z,10.20
2023-02-24T00:09:30.904Z,10.20
2023-02-24T00:12:01.368Z,10.20
2023-02-24T00:14:31.806Z,10.20
2023-02-24T00:17:00.310Z,10.20
2023-02-24T00:19:32.671Z,10.20
2023-02-24T00:22:02.927Z,10.30
2023-02-24T00:24:31.315Z,10.30
2023-02-24T00:27:01.627Z,10.30
2023-02-24T00:29:32.460Z,10.30
2023-02-24T00:32:01.667Z,10.30
2023-02-24T00:34:33.408Z,10.30
2023-02-24T00:37:06.875Z,10.20
2023-02-24T00:39:36.355Z,10.30
2023-02-24T00:42:06.858Z,10.30
2023-02-24T00:44:38.031Z,10.30
2023-02-24T00:47:08.706Z,10.20
2023-02-24T00:49:42.317Z,10.20
2023-02-24T00:52:14.613Z,10.20
2023-02-24T00:54:42.898Z,10.20
2023-02-24T00:57:12.180Z,10.20
2023-02-24T00:59:41.425Z,10.20
2023-02-24T01:02:11.465Z,10.20
2023-02-24T01:04:39.893Z,10.20
2023-02-24T01:07:10.880Z,10.20
2023-02-24T01:09:42.254Z,10.20
2023-02-24T01:12:29.432Z,10.10
2023-02-24T01:14:57.714Z,10.10
2023-02-24T01:17:26.432Z,10.10
2023-02-24T01:19:55.152Z,10.00
2023-02-24T01:22:23.952Z,10.00
2023-02-24T01:24:53.797Z,10.00
2023-02-24T01:27:22.116Z,10.00
2023-02-24T01:29:50.495Z,10.20
2023-02-24T01:32:21.304Z,10.30
2023-02-24T01:34:53.128Z,10.00
2023-02-24T01:37:21.773Z,10.00
2023-02-24T01:39:51.023Z,9.90
2023-02-24T01:42:22.486Z,9.90
2023-02-24T01:45:25.048Z,9.90
2023-02-24T01:47:58.208Z,9.90
2023-02-24T01:50:27.717Z,9.80
2023-02-24T01:52:58.984Z,9.80
2023-02-24T01:55:32.061Z,9.80
2023-02-24T01:58:06.027Z,9.80
2023-02-24T02:00:38.383Z,9.80
2023-02-24T02:03:15.582Z,9.80
2023-02-24T02:05:45.322Z,9.70
2023-02-24T02:08:14.884Z,9.70
2023-02-24T02:10:45.351Z,9.70
2023-02-24T02:13:21.194Z,9.70
2023-02-24T02:16:18.490Z,9.70
2023-02-24T02:18:56.852Z,9.60
2023-02-24T02:21:59.626Z,9.60
2023-02-24T02:24:48.449Z,9.60
2023-02-24T02:27:45.175Z,9.60
2023-02-24T02:30:37.911Z,9.60
2023-02-24T02:33:45.263Z,9.60
2023-02-24T02:36:23.393Z,9.60
2023-02-24T02:38:57.554Z,9.90
2023-02-24T02:41:30.390Z,9.60
2023-02-24T02:44:09.287Z,9.60
2023-02-24T02:46:44.040Z,9.60
2023-02-24T02:49:18.606Z,9.60
2023-02-24T02:51:52.809Z,9.50
2023-02-24T02:54:28.259Z,9.60
2023-02-24T02:57:02.169Z,9.60
2023-02-24T02:59:33.254Z,9.50
2023-02-24T03:02:14.942Z,9.60
2023-02-24T03:04:48.650Z,9.60
2023-02-24T03:07:21.082Z,9.60
2023-02-24T03:09:56.062Z,9.60
2023-02-24T03:12:27.366Z,9.60
2023-02-24T03:15:00.145Z,9.60
2023-02-24T03:17:33.909Z,9.60
2023-02-24T03:20:16.801Z,9.60
2023-02-24T03:22:51.994Z,9.60
2023-02-24T03:25:24.538Z,9.60
2023-02-24T03:27:57.494Z,9.60
2023-02-24T03:30:33.135Z,9.60
2023-02-24T03:33:06.363Z,9.50
2023-02-24T03:35:41.925Z,9.50
2023-02-24T03:38:14.148Z,9.50
2023-02-24T03:40:43.608Z,9.60
2023-02-24T03:43:26.076Z,9.60
2023-02-24T03:45:57.205Z,9.50
2023-02-24T03:48:27.164Z,9.50
2023-02-24T03:50:56.868Z,9.50
2023-02-24T03:53:54.524Z,9.60
2023-02-24T03:56:34.502Z,9.60
2023-02-24T03:59:14.422Z,9.50
2023-02-24T04:01:51.918Z,9.50
2023-02-24T04:04:30.918Z,9.50
2023-02-24T04:07:15.244Z,9.70
2023-02-24T04:09:51.455Z,9.50
2023-02-24T04:12:23.967Z,9.50
2023-02-24T04:15:04.694Z,9.50
2023-02-24T04:17:39.218Z,9.40
2023-02-24T04:20:13.456Z,9.40
2023-02-24T04:22:48.942Z,9.40
2023-02-24T04:25:24.556Z,9.40
2023-02-24T04:27:55.930Z,9.40
2023-02-24T04:30:27.472Z,9.40
2023-02-24T04:32:56.824Z,9.40
2023-02-24T04:35:27.767Z,9.40
2023-02-24T04:37:58.288Z,9.40
2023-02-24T04:40:28.725Z,9.80
2023-02-24T04:42:57.097Z,9.40
2023-02-24T04:45:28.214Z,9.40
2023-02-24T04:48:01.035Z,9.40
2023-02-24T04:50:31.572Z,9.40
2023-02-24T04:53:01.713Z,9.40
2023-02-24T04:55:33.202Z,9.40
2023-02-24T04:58:03.014Z,9.40
2023-02-24T05:00:35.776Z,9.40
2023-02-24T05:03:05.975Z,9.40
2023-02-24T05:05:34.451Z,9.40
2023-02-24T05:08:04.181Z,9.40
2023-02-24T05:10:39.326Z,9.40
2023-02-24T05:13:09.159Z,9.30
2023-02-24T05:15:41.191Z,9.30
2023-02-24T05:18:14.102Z,9.30
2023-02-24T05:21:02.970Z,9.30
2023-02-24T05:23:33.986Z,9.30
2023-02-24T05:26:08.590Z,9.30
2023-02-24T05:28:37.889Z,9.30
2023-02-24T05:31:08.687Z,9.40
2023-02-24T05:33:38.269Z,9.30
2023-02-24T05:36:09.875Z,9.30
2023-02-24T05:38:38.997Z,9.30
2023-02-24T05:41:15.116Z,9.20
2023-02-24T05:43:48.115Z,9.20
2023-02-24T05:46:17.363Z,9.20
2023-02-24T05:48:45.836Z,9.20
2023-02-24T05:51:14.461Z,9.20
2023-02-24T05:53:42.818Z,9.20
2023-02-24T05:56:12.592Z,9.30
2023-02-24T05:58:40.844Z,9.30
2023-02-24T06:01:16.393Z,9.20
2023-02-24T06:03:48.019Z,9.30
2023-02-24T06:06:17.137Z,9.30
2023-02-24T06:08:50.512Z,9.30
2023-02-24T06:11:21.936Z,9.20
2023-02-24T06:13:50.636Z,9.30
2023-02-24T06:16:20.734Z,9.30
2023-02-24T06:18:50.998Z,9.30
2023-02-24T06:21:20.083Z,9.30
2023-02-24T06:23:48.586Z,9.30
2023-02-24T06:26:19.620Z,9.30
2023-02-24T06:28:49.970Z,9.30
2023-02-24T06:31:18.393Z,9.30
2023-02-24T06:33:46.849Z,9.30
2023-02-24T06:36:15.468Z,9.30
2023-02-24T06:38:44.106Z,9.30
2023-02-24T06:41:12.357Z,9.30
2023-02-24T06:43:43.158Z,9.40
2023-02-24T06:46:14.367Z,9.30
2023-02-24T06:48:42.832Z,9.30
2023-02-24T06:51:13.929Z,9.30
2023-02-24T06:53:44.076Z,9.30
2023-02-24T06:56:15.846Z,9.30
2023-02-24T06:58:45.236Z,9.30
2023-02-24T07:01:16.447Z,9.20
2023-02-24T07:04:03.326Z,9.20
2023-02-24T07:06:34.608Z,9.30
2023-02-24T07:09:07.084Z,9.30
2023-02-24T07:11:36.776Z,9.20
2023-02-24T07:14:05.859Z,9.30
2023-02-24T07:16:37.098Z,9.20
2023-02-24T07:19:11.195Z,9.30
2023-02-24T07:21:43.278Z,9.30
2023-02-24T07:24:13.955Z,9.20
2023-02-24T07:26:43.858Z,9.30
2023-02-24T07:29:13.113Z,9.20
2023-02-24T07:31:43.148Z,9.30
2023-02-24T07:34:15.104Z,9.20
2023-02-24T07:36:50.155Z,9.20
2023-02-24T07:39:19.677Z,9.30
2023-02-24T07:41:49.417Z,9.30
2023-02-24T07:44:19.878Z,9.30
2023-02-24T07:46:50.085Z,9.20
2023-02-24T07:49:22.182Z,9.20
2023-02-24T07:51:53.007Z,9.20
2023-02-24T07:54:23.271Z,9.20
2023-02-24T07:56:57.751Z,9.20
2023-02-24T07:59:28.281Z,9.20
2023-02-24T08:01:58.570Z,9.20
2023-02-24T08:04:28.812Z,9.20
2023-02-24T08:07:02.592Z,9.20
2023-02-24T08:10:08.629Z,9.20
2023-02-24T08:12:42.599Z,9.20
2023-02-24T08:15:18.137Z,9.20
2023-02-24T08:17:47.862Z,9.20
2023-02-24T08:20:22.979Z,9.20
2023-02-24T08:22:53.141Z,9.20
2023-02-24T08:25:23.330Z,9.20
2023-02-24T08:28:12.492Z,9.20
2023-02-24T08:30:45.700Z,9.20
2023-02-24T08:33:20.312Z,9.20
2023-02-24T08:35:52.986Z,9.20
2023-02-24T08:38:26.383Z,9.20
2023-02-24T08:40:58.627Z,9.20
2023-02-24T08:43:34.154Z,9.20
2023-02-24T08:46:18.488Z,9.20
2023-02-24T08:48:49.982Z,9.20
2023-02-24T08:51:23.007Z,9.20
2023-02-24T08:53:53.738Z,9.20
2023-02-24T08:56:30.601Z,9.20
2023-02-24T08:59:05.636Z,9.20
2023-02-24T09:01:36.182Z,9.10
2023-02-24T09:04:08.534Z,9.50
2023-02-24T09:06:41.045Z,9.20
2023-02-24T09:09:18.683Z,9.20
2023-02-24T09:11:49.447Z,9.20
2023-02-24T09:14:27.502Z,9.20
2023-02-24T09:17:04.098Z,9.20
2023-02-24T09:19:55.500Z,9.20
2023-02-24T09:22:42.681Z,9.20
2023-02-24T09:25:19.123Z,9.20
2023-02-24T09:27:52.352Z,9.20
2023-02-24T09:30:42.274Z,9.20
2023-02-24T09:33:18.880Z,9.20
2023-02-24T09:36:13.890Z,9.20
2023-02-24T09:39:08.913Z,9.10
2023-02-24T09:41:56.823Z,9.10
2023-02-24T09:44:34.409Z,9.10
2023-02-24T09:47:13.585Z,9.10
2023-02-24T09:49:50.707Z,9.10
2023-02-24T09:52:20.893Z,9.00
2023-02-24T09:55:08.933Z,9.10
2023-02-24T09:58:10.038Z,9.10
2023-02-24T10:00:44.256Z,9.00
2023-02-24T10:03:41.665Z,9.00
2023-02-24T10:06:20.976Z,9.00
2023-02-24T10:08:56.965Z,9.00
2023-02-24T10:11:33.959Z,9.00
2023-02-24T10:14:06.985Z,9.00
2023-02-24T10:16:43.091Z,9.00
2023-02-24T10:19:25.472Z,9.00
2023-02-24T10:22:03.041Z,9.00
2023-02-24T10:24:37.592Z,9.00
2023-02-24T10:27:17.696Z,9.00
2023-02-24T10:30:05.705Z,9.00
2023-02-24T10:32:47.120Z,9.00
2023-02-24T10:35:17.676Z,9.00
2023-02-24T10:37:46.413Z,9.00
2023-02-24T10:40:26.542Z,9.10
2023-02-24T10:43:10.618Z,9.00
2023-02-24T10:45:45.337Z,9.00
2023-02-24T10:48:40.354Z,9.00
2023-02-24T10:51:19.652Z,9.00
2023-02-24T10:54:09.925Z,9.00
2023-02-24T10:56:44.789Z,9.00
2023-02-24T10:59:41.341Z,9.00
2023-02-24T11:02:29.734Z,9.00
2023-02-24T11:05:16.919Z,9.00
2023-02-24T11:07:53.558Z,9.00
2023-02-24T11:10:32.428Z,9.00
2023-02-24T11:13:20.034Z,9.00
2023-02-24T11:16:08.211Z,9.00
2023-02-24T11:18:38.979Z,9.00
2023-02-24T11:21:10.859Z,9.10
2023-02-24T11:23:43.160Z,9.00
2023-02-24T11:26:17.833Z,9.00
2023-02-24T11:28:58.587Z,9.10
2023-02-24T11:31:44.159Z,9.00
2023-02-24T11:34:24.639Z,9.00
2023-02-24T11:37:04.708Z,9.10
2023-02-24T11:39:53.100Z,9.00
2023-02-24T11:42:26.450Z,9.00
2023-02-24T11:45:01.001Z,9.00
2023-02-24T11:47:36.816Z,9.10
2023-02-24T11:50:16.709Z,8.90
2023-02-24T11:52:49.331Z,9.00
2023-02-24T11:55:28.320Z,8.90
2023-02-24T11:58:01.417Z,8.90
2023-02-24T12:00:37.281Z,9.30
2023-02-24T12:03:14.784Z,8.90
2023-02-24T12:05:49.618Z,8.90
2023-02-24T12:08:27.077Z,8.90
2023-02-24T12:11:01.683Z,8.90
2023-02-24T12:13:40.109Z,8.90
2023-02-24T12:16:16.877Z,8.80
2023-02-24T12:18:48.575Z,8.80
2023-02-24T12:21:22.726Z,8.80
2023-02-24T12:23:54.338Z,8.80
2023-02-24T12:26:26.154Z,8.80
2023-02-24T12:29:18.707Z,8.80
2023-02-24T12:31:57.511Z,8.80
2023-02-24T12:34:37.500Z,8.80
2023-02-24T12:37:30.292Z,8.80
2023-02-24T12:40:11.704Z,8.80
2023-02-24T12:42:46.782Z,8.80
2023-02-24T12:45:23.160Z,8.80
2023-02-24T12:48:04.902Z,8.70
2023-02-24T12:50:46.375Z,8.70
2023-02-24T12:53:21.671Z,8.70
2023-02-24T12:55:59.083Z,8.70
2023-02-24T12:58:30.558Z,8.70
2023-02-24T13:01:12.854Z,8.60
2023-02-24T13:04:05.739Z,8.60
2023-02-24T13:06:48.252Z,8.60
2023-02-24T13:09:23.268Z,8.60
2023-02-24T13:11:57.823Z,8.60
2023-02-24T13:14:31.716Z,8.60
2023-02-24T13:17:20.142Z,8.70
2023-02-24T13:19:52.709Z,8.40
2023-02-24T13:22:30.722Z,8.70
2023-02-24T13:25:02.883Z,8.70
2023-02-24T13:27:34.909Z,8.70
2023-02-24T13:30:08.651Z,8.70
2023-02-24T13:32:39.202Z,8.70
2023-02-24T13:35:32.135Z,8.70
2023-02-24T13:38:10.495Z,8.70
2023-02-24T13:40:39.218Z,8.30
2023-02-24T13:43:25.066Z,8.60
2023-02-24T13:46:00.108Z,8.50
2023-02-24T13:48:59.284Z,8.50
2023-02-24T13:52:03.560Z,8.50
2023-02-24T13:55:02.554Z,8.50
2023-02-24T13:57:55.144Z,8.50
2023-02-24T14:00:32.604Z,8.60
2023-02-24T14:03:02.100Z,8.60
2023-02-24T14:05:35.370Z,8.60
2023-02-24T14:08:06.282Z,8.60
2023-02-24T14:10:36.960Z,8.60
2023-02-24T14:13:08.453Z,8.60
2023-02-24T14:15:37.141Z,8.60
2023-02-24T14:18:07.148Z,9.00
2023-02-24T14:20:38.052Z,8.70
2023-02-24T14:23:23.249Z,8.70
2023-02-24T14:25:56.777Z,8.70
2023-02-24T14:28:28.276Z,8.70
2023-02-24T14:30:59.275Z,8.70
2023-02-24T14:33:31.807Z,9.00
2023-02-24T14:36:01.106Z,8.80
2023-02-24T14:38:33.719Z,8.70
2023-02-24T14:41:02.730Z,8.80
2023-02-24T14:43:31.060Z,8.70
2023-02-24T14:45:59.702Z,8.70
2023-02-24T14:48:29.523Z,8.70
2023-02-24T14:51:02.443Z,8.70
2023-02-24T14:53:34.798Z,8.60
2023-02-24T14:56:06.236Z,8.60
2023-02-24T14:58:41.467Z,8.60
2023-02-24T15:01:21.262Z,8.60
2023-02-24T15:03:53.087Z,8.60
2023-02-24T15:06:25.943Z,8.70
2023-02-24T15:09:00.276Z,8.70
2023-02-24T15:11:31.554Z,8.70
2023-02-24T15:14:02.436Z,8.70
2023-02-24T15:16:38.364Z,8.70
2023-02-24T15:19:25.294Z,8.70
2023-02-24T15:21:53.781Z,8.80
2023-02-24T15:24:28.636Z,8.80
2023-02-24T15:26:59.910Z,8.80
2023-02-24T15:29:30.112Z,8.80
2023-02-24T15:32:00.788Z,8.80
2023-02-24T15:34:31.300Z,8.90
2023-02-24T15:37:03.181Z,8.80
2023-02-24T15:39:36.983Z,8.90
2023-02-24T15:42:10.220Z,8.90
2023-02-24T15:44:38.552Z,8.90
2023-02-24T15:47:22.468Z,8.90
2023-02-24T15:49:50.901Z,8.90
2023-02-24T15:52:23.789Z,8.90
2023-02-24T15:54:53.885Z,8.90
2023-02-24T15:57:22.766Z,8.90
2023-02-24T15:59:51.049Z,8.90
2023-02-24T16:02:21.083Z,8.90
2023-02-24T16:04:50.122Z,8.90
2023-02-24T16:07:21.509Z,8.90
2023-02-24T16:09:53.292Z,8.90
2023-02-24T16:12:25.613Z,8.90
2023-02-24T16:14:55.955Z,8.90
2023-02-24T16:17:32.770Z,8.90
2023-02-24T16:20:01.859Z,8.90
2023-02-24T16:22:30.481Z,8.90
2023-02-24T16:24:58.802Z,9.20
2023-02-24T16:27:29.642Z,8.90
2023-02-24T16:29:58.871Z,8.90
2023-02-24T16:32:28.141Z,8.90
2023-02-24T16:34:57.263Z,8.90
2023-02-24T16:37:28.917Z,8.80
2023-02-24T16:39:57.385Z,8.70
2023-02-24T16:42:25.646Z,8.60
2023-02-24T16:44:55.420Z,8.60
2023-02-24T16:47:25.134Z,8.40
2023-02-24T16:49:55.394Z,8.40
2023-02-24T16:52:24.956Z,8.30
2023-02-24T16:54:53.524Z,8.20
2023-02-24T16:57:25.611Z,8.10
2023-02-24T16:59:55.712Z,8.10
2023-02-24T17:02:26.282Z,8.00
2023-02-24T17:04:54.741Z,8.00
2023-02-24T17:07:23.230Z,8.00
2023-02-24T17:09:51.563Z,8.00
2023-02-24T17:12:22.615Z,8.00
2023-02-24T17:14:50.988Z,8.00
2023-02-24T17:17:21.790Z,8.00
2023-02-24T17:19:50.108Z,8.20
2023-02-24T17:22:18.760Z,8.00
2023-02-24T17:24:47.060Z,8.10
2023-02-24T17:27:15.371Z,8.10
2023-02-24T17:29:43.662Z,8.10
2023-02-24T17:32:12.120Z,8.10
2023-02-24T17:34:41.877Z,8.20
2023-02-24T17:37:10.210Z,8.20
2023-02-24T17:39:38.512Z,8.20
2023-02-24T17:42:07.008Z,8.30
2023-02-24T17:44:35.536Z,8.30
2023-02-24T17:47:03.868Z,8.30
2023-02-24T17:49:32.237Z,8.30
2023-02-24T17:52:01.859Z,8.30
2023-02-24T17:54:30.159Z,8.20
2023-02-24T17:56:58.451Z,8.20
2023-02-24T17:59:26.750Z,8.20
2023-02-24T18:01:55.098Z,8.10
2023-02-24T18:04:23.441Z,8.10
2023-02-24T18:06:51.696Z,8.00
2023-02-24T18:09:21.494Z,8.00
2023-02-24T18:11:49.828Z,8.00
2023-02-24T18:14:18.335Z,8.00
2023-02-24T18:16:47.884Z,8.10
2023-02-24T18:19:16.186Z,8.20
2023-02-24T18:21:44.558Z,8.20
2023-02-24T18:24:12.941Z,8.20
2023-02-24T18:26:42.658Z,8.30
2023-02-24T18:29:10.982Z,8.20
2023-02-24T18:31:39.492Z,8.20
2023-02-24T18:34:08.114Z,8.20
2023-02-24T18:36:36.623Z,8.10
2023-02-24T18:39:06.007Z,8.00
2023-02-24T18:41:34.326Z,7.90
2023-02-24T18:44:03.994Z,7.90
2023-02-24T18:46:32.287Z,7.90
2023-02-24T18:49:00.630Z,7.90
2023-02-24T18:51:29.434Z,7.80
2023-02-24T18:54:00.361Z,7.80
2023-02-24T18:56:31.082Z,7.80
2023-02-24T18:59:00.824Z,7.80
2023-02-24T19:01:32.478Z,7.70
2023-02-24T19:04:01.572Z,7.70
2023-02-24T19:06:31.485Z,7.70
2023-02-24T19:09:02.637Z,7.70
2023-02-24T19:11:31.112Z,7.60
2023-02-24T19:14:00.440Z,7.60
2023-02-24T19:16:30.826Z,7.50
2023-02-24T19:19:00.275Z,7.50
2023-02-24T19:21:30.465Z,7.40
2023-02-24T19:24:01.854Z,7.40
2023-02-24T19:26:30.628Z,7.30
2023-02-24T19:29:00.058Z,7.30
2023-02-24T19:31:32.450Z,7.20
2023-02-24T19:34:03.035Z,7.30
2023-02-24T19:36:33.438Z,7.20
2023-02-24T19:39:02.146Z,7.30
2023-02-24T19:41:31.175Z,7.30
2023-02-24T19:43:59.578Z,7.40
2023-02-24T19:46:31.579Z,7.40
2023-02-24T19:49:01.507Z,7.40
2023-02-24T19:51:30.456Z,7.40
2023-02-24T19:54:02.782Z,7.50
2023-02-24T19:56:34.362Z,7.50
2023-02-24T19:59:04.104Z,7.40
2023-02-24T20:01:33.127Z,7.30
2023-02-24T20:04:05.141Z,7.30
2023-02-24T20:06:35.701Z,7.30
2023-02-24T20:09:07.301Z,7.30
2023-02-24T20:11:36.708Z,7.30
2023-02-24T20:14:05.699Z,7.30
2023-02-24T20:16:34.938Z,7.20
2023-02-24T20:19:06.059Z,7.30
2023-02-24T20:21:34.819Z,7.30
2023-02-24T20:24:04.470Z,7.50
2023-02-24T20:26:32.964Z,7.40
2023-02-24T20:29:01.799Z,7.40
2023-02-24T20:31:30.096Z,7.40
2023-02-24T20:33:58.462Z,7.40
2023-02-24T20:36:29.833Z,7.50
2023-02-24T20:39:00.594Z,7.40
2023-02-24T20:41:29.517Z,7.40
2023-02-24T20:43:57.852Z,7.50
2023-02-24T20:46:28.753Z,7.50
2023-02-24T20:48:59.073Z,7.50
2023-02-24T20:51:30.483Z,7.70
2023-02-24T20:53:59.349Z,7.50
2023-02-24T20:56:29.136Z,7.50
2023-02-24T20:59:01.026Z,7.50
2023-02-24T21:01:30.937Z,7.50
2023-02-24T21:03:59.449Z,7.50
2023-02-24T21:06:29.933Z,7.50
2023-02-24T21:08:58.396Z,7.40
2023-02-24T21:11:27.482Z,7.40
2023-02-24T21:13:55.795Z,7.40
2023-02-24T21:16:25.007Z,7.40
2023-02-24T21:18:53.657Z,7.30
2023-02-24T21:21:22.349Z,7.30
2023-02-24T21:23:52.607Z,7.30
2023-02-24T21:26:21.539Z,7.30
2023-02-24T21:28:57.426Z,7.30
2023-02-24T21:31:27.484Z,7.30
2023-02-24T21:33:56.803Z,7.30
2023-02-24T21:36:26.327Z,7.30
2023-02-24T21:38:56.546Z,7.30
2023-02-24T21:41:25.262Z,7.30
2023-02-24T21:43:55.663Z,7.30
2023-02-24T21:46:28.103Z,7.20
2023-02-24T21:48:57.812Z,7.20
2023-02-24T21:51:27.271Z,7.20
2023-02-24T21:53:58.117Z,7.10
2023-02-24T21:56:27.773Z,7.40
2023-02-24T21:58:59.446Z,7.10
2023-02-24T22:01:29.708Z,7.00
2023-02-24T22:03:59.843Z,7.00
2023-02-24T22:06:31.766Z,7.10
2023-02-24T22:09:02.829Z,7.10
2023-02-24T22:11:35.267Z,7.00
2023-02-24T22:14:03.824Z,7.00
2023-02-24T22:16:32.313Z,6.90
2023-02-24T22:19:00.987Z,6.90
2023-02-24T22:21:30.688Z,6.80
2023-02-24T22:24:02.368Z,6.90
2023-02-24T22:26:31.953Z,6.90
2023-02-24T22:29:01.650Z,6.80
2023-02-24T22:31:32.226Z,6.90
2023-02-24T22:34:01.515Z,7.10
2023-02-24T22:36:33.277Z,6.80
2023-02-24T22:39:03.810Z,6.80
2023-02-24T22:41:34.036Z,6.80
2023-02-24T22:44:04.340Z,6.80
2023-02-24T22:46:35.083Z,6.80
2023-02-24T22:49:03.794Z,6.80
2023-02-24T22:51:32.214Z,6.80
2023-02-24T22:54:02.032Z,6.80
2023-02-24T22:56:30.501Z,6.80
2023-02-24T22:59:00.628Z,6.80
2023-02-24T23:01:31.210Z,6.80
2023-02-24T23:04:01.959Z,6.70
2023-02-24T23:06:31.071Z,6.80
2023-02-24T23:09:00.869Z,6.70
2023-02-24T23:11:32.302Z,6.70
2023-02-24T23:14:02.506Z,6.70
2023-02-24T23:16:33.012Z,6.80
2023-02-24T23:19:04.888Z,6.80
2023-02-24T23:21:35.135Z,6.80
2023-02-24T23:24:04.160Z,6.80
2023-02-24T23:26:36.572Z,6.80
2023-02-24T23:29:06.190Z,6.90
2023-02-24T23:31:35.800Z,6.90
2023-02-24T23:34:07.175Z,6.90
2023-02-24T23:36:37.071Z,6.80
2023-02-24T23:39:07.787Z,6.80
2023-02-24T23:41:38.039Z,6.70
2023-02-24T23:44:07.307Z,6.80
2023-02-24T23:46:36.943Z,6.90
2023-02-24T23:49:06.361Z,6.90
2023-02-24T23:51:47.544Z,6.90
2023-02-24T23:54:16.916Z,7.00
2023-02-24T23:56:46.975Z,6.90
2023-02-24T23:59:15.656Z,6.90
